• Join FlightAware (Why Join?)
  • Login
  • US Flag 
03:46AM EDT


 

Airport Tracker/Info


-or-


 

Live Flight TrackerFlight Track Log ✈ N273SK ✈ 25-Apr-2013 ✈ KMEM - KSDF

Flight Track Log - Related Links

Times and Time Zones

All times are in EDT time to prevent confusion due to time zone crossing. See the N273SK flight status page for this flight to view local times or setup timezone preferences in your user account.

Time Position Orientation Groundspeed Altitude Reporting Facility
EDT Latitude Longitude Course Direction KTS MPH feet Rate Location/Type
09:58AM 35.0667 -89.9667 33° Northeast 162 186 1,300  Level KMEM
09:59AM 35.1333 -89.9667 360° North 236 272 3,700 2,220 Climbing KMEM
10:00AM 35.2000 -89.9500 12° North 238 274 6,500 2,520 Climbing KMEM
10:01AM 35.1613 -89.7500 North  Level FlightAware Approximate
10:01AM 35.2667 -89.9000 31° Northeast 272 313 8,800  Level KMEM
10:02AM 35.2805 -89.7601 345° North  Level FlightAware Approximate
10:02AM 35.3483 -89.8200 39° Northeast 307 353 10,900  Level Memphis Center
10:03AM 35.3838 -89.6997 33° Northeast  Level FlightAware Approximate
10:03AM 35.4125 -89.7533 40° Northeast 322 371 11,700  Level Memphis Center
10:04AM 35.4936 -89.6761 38° Northeast 351 404 13,000 1,260 Climbing Memphis Center
10:05AM 35.5722 -89.5939 40° Northeast 366 421 14,300 1,200 Climbing Memphis Center
10:06AM 35.6572 -89.5114 38° Northeast 379 436 15,500 1,200 Climbing Memphis Center
10:07AM 35.7528 -89.4361 33° Northeast 372 428 16,800 1,140 Climbing Memphis Center
10:08AM 35.8461 -89.3658 31° Northeast 372 428 17,800 780 Climbing Memphis Center
10:09AM 35.9433 -89.2956 30° Northeast 386 444 18,400 720 Climbing Memphis Center
10:10AM 36.0428 -89.2197 32° Northeast 396 456 19,300 900 Climbing Memphis Center
10:11AM 36.1400 -89.1464 31° Northeast 402 463 20,300 960 Climbing Memphis Center
10:12AM 36.2417 -89.0703 31° Northeast 407 468 21,300 900 Climbing Memphis Center
10:13AM 36.3428 -88.9914 32° Northeast 414 476 22,200 900 Climbing Memphis Center
10:14AM 36.4461 -88.9147 31° Northeast 424 488 23,200 900 Climbing Memphis Center
10:15AM 36.5475 -88.8381 31° Northeast 424 488 24,100 900 Climbing Memphis Center
10:16AM 36.6506 -88.7639 30° Northeast 424 488 25,100 900 Climbing Memphis Center
10:17AM 36.7539 -88.6842 32° Northeast 424 488 26,000 900 Climbing Memphis Center
10:18AM 36.8589 -88.6042 31° Northeast 424 488 27,000 480 Climbing Memphis Center
10:19AM 36.9642 -88.5239 31° Northeast 430 495 27,000  Level Memphis Center
10:20AM 37.0733 -88.4408 31° Northeast 440 506 27,000  Level Memphis Center
10:21AM 37.1844 -88.3547 32° Northeast 452 520 27,000  Level Memphis Center
10:23AM 37.3553 -88.2142 33° Northeast 476 548 27,000  Level Indianapolis Center
10:24AM 37.4683 -88.1261 32° Northeast 473 544 27,000  Level Indianapolis Center
10:25AM 37.5789 -88.0378 32° Northeast 467 537 27,000  Level Indianapolis Center
10:26AM 37.6894 -87.9514 32° Northeast 462 532 27,000  Level Indianapolis Center
10:27AM 37.8081 -87.8572 32° Northeast 461 531 27,000 -180 Level Indianapolis Center
10:28AM 37.8856 -87.7183 55° Northeast 493 567 26,700 -900 Descending Indianapolis Center
10:29AM 37.9336 -87.5528 70° East 499 574 25,200 -1,500 Descending Indianapolis Center
10:30AM 37.9806 -87.3897 70° East 495 570 23,700 -1,620 Descending Indianapolis Center
10:31AM 38.0336 -87.2067 70° East 467 537 21,900 -2,100 Descending Indianapolis Center
10:32AM 38.0742 -87.0653 70° East 436 502 19,400 -2,400 Descending Indianapolis Center
10:33AM 38.1125 -86.9303 70° East 415 478 17,000 -2,520 Descending Indianapolis Center
10:34AM 38.1489 -86.8017 70° East 394 453 14,300 -2,700 Descending Indianapolis Center
10:35AM 38.1850 -86.6786 69° East 377 434 11,500 -1,800 Descending Indianapolis Center
10:37AM 38.2242 -86.5356 71° East 358 412 10,600 -780 Descending Indianapolis Center
10:38AM 38.2178 -86.4247 94° East 320 368 10,000 -360 Descending Indianapolis Center
10:38AM 38.2097 -86.3567 99° East 316 364 10,000 -120 Level FAA TRACON SMA TRACON (SMA)
10:39AM 38.2039 -86.3139 100° East 317 365 9,900 -180 Descending FAA TRACON SMA TRACON (SMA)
10:39AM 38.1994 -86.2800 99° East 319 367 9,900 120 Level FAA TRACON SMA TRACON (SMA)
10:39AM 38.1983 -86.2372 92° East 318 366 10,000 -600 Climbing FAA TRACON SMA TRACON (SMA)
10:40AM 38.2069 -86.2058 71° East 311 358 9,500 -1,740 Descending FAA TRACON SMA TRACON (SMA)
10:40AM 38.2153 -86.1753 71° East 304 350 8,900 -1,980 Descending FAA TRACON SMA TRACON (SMA)
10:40AM 38.2256 -86.1369 71° East 300 345 8,200 -1,800 Descending FAA TRACON SMA TRACON (SMA)
10:41AM 38.2333 -86.1064 72° East 296 341 7,700 -1,500 Descending FAA TRACON SMA TRACON (SMA)
10:41AM 38.2419 -86.0761 70° East 295 339 7,200 -1,680 Descending FAA TRACON SMA TRACON (SMA)
10:41AM 38.2522 -86.0397 70° East 288 331 6,600 -1,680 Descending FAA TRACON SMA TRACON (SMA)
10:42AM 38.2600 -86.0114 71° East 280 322 6,100 -1,500 Descending FAA TRACON SMA TRACON (SMA)
10:42AM 38.2678 -85.9831 71° East 275 316 5,600 -2,100 Descending FAA TRACON SMA TRACON (SMA)
10:42AM 38.2800 -85.9506 64° Northeast 268 308 4,700 -2,640 Descending FAA TRACON SMA TRACON (SMA)
10:43AM 38.2911 -85.9247 61° Northeast 268 308 3,900 -2,340 Descending FAA TRACON SMA TRACON (SMA)
10:43AM 38.3028 -85.8992 60° Northeast 270 311 3,200 -1,380 Descending FAA TRACON SMA TRACON (SMA)
10:43AM 38.3144 -85.8753 58° Northeast 265 305 3,000 -480 Descending FAA TRACON SMA TRACON (SMA)
10:44AM 38.3283 -85.8475 57° Northeast 246 283 2,900 -180 Descending FAA TRACON SMA TRACON (SMA)
10:44AM 38.3386 -85.8256 59° Northeast 234 269 2,900  Level FAA TRACON SMA TRACON (SMA)
10:44AM 38.3392 -85.8017 88° East 235 270 2,900  Level FAA TRACON SMA TRACON (SMA)